sensor_id;sensor_type;location;lat;lon;timestamp;P1;durP1;ratioP1;P2;durP2;ratioP2
44145;SDS011;29809;52.432;4.780;2023-03-17T00:01:40;1.30;;;1.20;;
44145;SDS011;29809;52.432;4.780;2023-03-17T00:04:09;1.00;;;0.90;;
44145;SDS011;29809;52.432;4.780;2023-03-17T00:06:34;1.67;;;1.25;;
44145;SDS011;29809;52.432;4.780;2023-03-17T00:09:00;0.98;;;0.85;;
44145;SDS011;29809;52.432;4.780;2023-03-17T00:11:26;1.77;;;1.23;;
44145;SDS011;29809;52.432;4.780;2023-03-17T00:13:52;1.85;;;1.02;;
44145;SDS011;29809;52.432;4.780;2023-03-17T00:16:18;1.75;;;0.90;;
44145;SDS011;29809;52.432;4.780;2023-03-17T00:18:44;0.95;;;0.95;;
44145;SDS011;29809;52.432;4.780;2023-03-17T00:21:11;1.15;;;1.02;;
44145;SDS011;29809;52.432;4.780;2023-03-17T00:23:37;2.92;;;0.88;;
44145;SDS011;29809;52.432;4.780;2023-03-17T00:26:02;1.10;;;1.05;;
44145;SDS011;29809;52.432;4.780;2023-03-17T00:28:28;1.20;;;1.10;;
44145;SDS011;29809;52.432;4.780;2023-03-17T00:30:55;1.63;;;1.20;;
44145;SDS011;29809;52.432;4.780;2023-03-17T00:33:22;2.15;;;1.05;;
44145;SDS011;29809;52.432;4.780;2023-03-17T00:35:47;2.80;;;1.10;;
44145;SDS011;29809;52.432;4.780;2023-03-17T00:38:16;1.20;;;1.10;;
44145;SDS011;29809;52.432;4.780;2023-03-17T00:40:42;0.77;;;0.75;;
44145;SDS011;29809;52.432;4.780;2023-03-17T00:43:08;1.27;;;0.95;;
44145;SDS011;29809;52.432;4.780;2023-03-17T00:45:34;1.17;;;1.05;;
44145;SDS011;29809;52.432;4.780;2023-03-17T00:47:59;1.20;;;1.10;;
44145;SDS011;29809;52.432;4.780;2023-03-17T00:50:26;2.13;;;1.15;;
44145;SDS011;29809;52.432;4.780;2023-03-17T00:52:52;1.77;;;1.30;;
44145;SDS011;29809;52.432;4.780;2023-03-17T00:55:19;2.38;;;2.17;;
44145;SDS011;29809;52.432;4.780;2023-03-17T00:57:45;1.23;;;1.15;;
44145;SDS011;29809;52.432;4.780;2023-03-17T01:00:32;1.10;;;1.00;;
44145;SDS011;29809;52.432;4.780;2023-03-17T01:02:57;1.00;;;0.95;;
44145;SDS011;29809;52.432;4.780;2023-03-17T01:05:23;1.10;;;0.90;;
44145;SDS011;29809;52.432;4.780;2023-03-17T01:07:50;1.10;;;1.00;;
44145;SDS011;29809;52.432;4.780;2023-03-17T01:10:26;1.48;;;1.25;;
44145;SDS011;29809;52.432;4.780;2023-03-17T01:12:52;1.10;;;1.00;;
44145;SDS011;29809;52.432;4.780;2023-03-17T01:15:18;3.45;;;1.20;;
44145;SDS011;29809;52.432;4.780;2023-03-17T01:17:44;1.20;;;1.10;;
44145;SDS011;29809;52.432;4.780;2023-03-17T01:20:13;1.35;;;1.25;;
44145;SDS011;29809;52.432;4.780;2023-03-17T01:22:40;2.22;;;0.90;;
44145;SDS011;29809;52.432;4.780;2023-03-17T01:25:06;1.30;;;1.20;;
44145;SDS011;29809;52.432;4.780;2023-03-17T01:27:34;1.48;;;1.10;;
44145;SDS011;29809;52.432;4.780;2023-03-17T01:30:00;1.10;;;1.00;;
44145;SDS011;29809;52.432;4.780;2023-03-17T01:32:26;1.73;;;1.02;;
44145;SDS011;29809;52.432;4.780;2023-03-17T01:34:52;1.45;;;1.35;;
44145;SDS011;29809;52.432;4.780;2023-03-17T01:37:17;1.20;;;1.10;;
44145;SDS011;29809;52.432;4.780;2023-03-17T01:39:42;1.88;;;1.23;;
44145;SDS011;29809;52.432;4.780;2023-03-17T01:42:07;1.40;;;1.30;;
44145;SDS011;29809;52.432;4.780;2023-03-17T01:44:33;0.90;;;0.85;;
44145;SDS011;29809;52.432;4.780;2023-03-17T01:46:58;1.80;;;1.13;;
44145;SDS011;29809;52.432;4.780;2023-03-17T01:51:55;1.25;;;1.15;;
44145;SDS011;29809;52.432;4.780;2023-03-17T01:54:29;2.97;;;1.10;;
44145;SDS011;29809;52.432;4.780;2023-03-17T01:56:55;1.23;;;1.13;;
44145;SDS011;29809;52.432;4.780;2023-03-17T01:59:24;1.35;;;1.25;;
44145;SDS011;29809;52.432;4.780;2023-03-17T02:01:52;1.20;;;1.05;;
44145;SDS011;29809;52.432;4.780;2023-03-17T02:04:18;1.48;;;0.80;;
44145;SDS011;29809;52.432;4.780;2023-03-17T02:06:45;1.02;;;0.93;;
44145;SDS011;29809;52.432;4.780;2023-03-17T02:09:11;1.23;;;1.15;;
44145;SDS011;29809;52.432;4.780;2023-03-17T02:11:36;3.10;;;1.27;;
44145;SDS011;29809;52.432;4.780;2023-03-17T02:14:02;1.40;;;1.30;;
44145;SDS011;29809;52.432;4.780;2023-03-17T02:16:28;1.20;;;1.10;;
44145;SDS011;29809;52.432;4.780;2023-03-17T02:18:54;0.82;;;0.82;;
44145;SDS011;29809;52.432;4.780;2023-03-17T02:24:27;1.20;;;1.05;;
44145;SDS011;29809;52.432;4.780;2023-03-17T02:26:48;1.27;;;1.13;;
44145;SDS011;29809;52.432;4.780;2023-03-17T02:29:15;2.03;;;1.13;;
44145;SDS011;29809;52.432;4.780;2023-03-17T02:31:40;1.40;;;1.30;;
44145;SDS011;29809;52.432;4.780;2023-03-17T02:34:06;1.98;;;1.20;;
44145;SDS011;29809;52.432;4.780;2023-03-17T02:36:31;2.00;;;1.10;;
44145;SDS011;29809;52.432;4.780;2023-03-17T02:38:56;2.30;;;1.23;;
44145;SDS011;29809;52.432;4.780;2023-03-17T02:41:22;1.27;;;1.17;;
44145;SDS011;29809;52.432;4.780;2023-03-17T02:43:47;1.10;;;1.08;;
44145;SDS011;29809;52.432;4.780;2023-03-17T02:46:13;1.50;;;1.20;;
44145;SDS011;29809;52.432;4.780;2023-03-17T02:48:38;1.90;;;1.27;;
44145;SDS011;29809;52.432;4.780;2023-03-17T02:51:03;1.45;;;1.10;;
44145;SDS011;29809;52.432;4.780;2023-03-17T02:53:29;1.17;;;1.10;;
44145;SDS011;29809;52.432;4.780;2023-03-17T02:55:55;1.25;;;1.13;;
44145;SDS011;29809;52.432;4.780;2023-03-17T02:58:21;1.38;;;1.17;;
44145;SDS011;29809;52.432;4.780;2023-03-17T03:00:46;1.38;;;1.00;;
44145;SDS011;29809;52.432;4.780;2023-03-17T03:03:12;1.63;;;1.38;;
44145;SDS011;29809;52.432;4.780;2023-03-17T03:05:38;2.13;;;1.33;;
44145;SDS011;29809;52.432;4.780;2023-03-17T03:08:03;1.33;;;1.02;;
44145;SDS011;29809;52.432;4.780;2023-03-17T03:10:28;1.48;;;1.38;;
44145;SDS011;29809;52.432;4.780;2023-03-17T03:12:54;1.35;;;1.05;;
44145;SDS011;29809;52.432;4.780;2023-03-17T03:15:20;1.20;;;1.10;;
44145;SDS011;29809;52.432;4.780;2023-03-17T03:17:45;1.50;;;1.20;;
44145;SDS011;29809;52.432;4.780;2023-03-17T03:20:10;1.17;;;0.98;;
44145;SDS011;29809;52.432;4.780;2023-03-17T03:22:36;1.42;;;1.20;;
44145;SDS011;29809;52.432;4.780;2023-03-17T03:25:02;1.05;;;1.02;;
44145;SDS011;29809;52.432;4.780;2023-03-17T03:27:28;1.13;;;1.02;;
44145;SDS011;29809;52.432;4.780;2023-03-17T03:29:54;1.27;;;0.90;;
44145;SDS011;29809;52.432;4.780;2023-03-17T03:32:19;1.83;;;1.27;;
44145;SDS011;29809;52.432;4.780;2023-03-17T03:34:44;1.55;;;1.33;;
44145;SDS011;29809;52.432;4.780;2023-03-17T03:37:09;1.17;;;1.00;;
44145;SDS011;29809;52.432;4.780;2023-03-17T03:39:35;2.42;;;1.13;;
44145;SDS011;29809;52.432;4.780;2023-03-17T03:42:01;1.08;;;0.98;;
44145;SDS011;29809;52.432;4.780;2023-03-17T03:44:26;0.90;;;0.90;;
44145;SDS011;29809;52.432;4.780;2023-03-17T03:46:51;1.55;;;1.38;;
44145;SDS011;29809;52.432;4.780;2023-03-17T03:49:17;1.15;;;1.05;;
44145;SDS011;29809;52.432;4.780;2023-03-17T03:51:42;1.25;;;1.02;;
44145;SDS011;29809;52.432;4.780;2023-03-17T03:54:07;1.02;;;0.90;;
44145;SDS011;29809;52.432;4.780;2023-03-17T03:56:33;1.52;;;1.00;;
44145;SDS011;29809;52.432;4.780;2023-03-17T03:58:58;1.00;;;0.90;;
44145;SDS011;29809;52.432;4.780;2023-03-17T04:01:24;1.30;;;1.10;;
44145;SDS011;29809;52.432;4.780;2023-03-17T04:03:49;1.10;;;1.10;;
44145;SDS011;29809;52.432;4.780;2023-03-17T04:06:15;3.55;;;1.50;;
44145;SDS011;29809;52.432;4.780;2023-03-17T04:08:41;1.20;;;1.10;;
44145;SDS011;29809;52.432;4.780;2023-03-17T04:11:06;1.33;;;0.90;;
44145;SDS011;29809;52.432;4.780;2023-03-17T04:13:32;1.02;;;1.00;;
44145;SDS011;29809;52.432;4.780;2023-03-17T04:15:57;1.45;;;1.25;;
44145;SDS011;29809;52.432;4.780;2023-03-17T04:18:23;1.65;;;1.55;;
44145;SDS011;29809;52.432;4.780;2023-03-17T04:20:49;1.50;;;1.02;;
44145;SDS011;29809;52.432;4.780;2023-03-17T04:23:14;1.42;;;1.20;;
44145;SDS011;29809;52.432;4.780;2023-03-17T04:25:39;1.08;;;0.98;;
44145;SDS011;29809;52.432;4.780;2023-03-17T04:28:05;1.40;;;1.30;;
44145;SDS011;29809;52.432;4.780;2023-03-17T04:30:30;1.35;;;1.20;;
44145;SDS011;29809;52.432;4.780;2023-03-17T04:32:56;1.50;;;1.40;;
44145;SDS011;29809;52.432;4.780;2023-03-17T04:35:21;4.13;;;1.63;;
44145;SDS011;29809;52.432;4.780;2023-03-17T04:37:47;1.60;;;1.13;;
44145;SDS011;29809;52.432;4.780;2023-03-17T04:40:13;1.58;;;1.38;;
44145;SDS011;29809;52.432;4.780;2023-03-17T04:42:38;1.83;;;1.70;;
44145;SDS011;29809;52.432;4.780;2023-03-17T04:45:04;1.27;;;1.17;;
44145;SDS011;29809;52.432;4.780;2023-03-17T04:47:30;1.30;;;1.20;;
44145;SDS011;29809;52.432;4.780;2023-03-17T04:49:56;1.73;;;1.60;;
44145;SDS011;29809;52.432;4.780;2023-03-17T04:52:21;1.45;;;1.17;;
44145;SDS011;29809;52.432;4.780;2023-03-17T04:54:46;1.65;;;1.52;;
44145;SDS011;29809;52.432;4.780;2023-03-17T04:57:11;2.90;;;1.60;;
44145;SDS011;29809;52.432;4.780;2023-03-17T04:59:37;1.83;;;1.20;;
44145;SDS011;29809;52.432;4.780;2023-03-17T05:02:02;3.03;;;1.70;;
44145;SDS011;29809;52.432;4.780;2023-03-17T05:04:27;2.50;;;1.50;;
44145;SDS011;29809;52.432;4.780;2023-03-17T05:06:53;1.70;;;1.60;;
44145;SDS011;29809;52.432;4.780;2023-03-17T05:09:18;1.50;;;1.40;;
44145;SDS011;29809;52.432;4.780;2023-03-17T05:11:44;1.85;;;1.40;;
44145;SDS011;29809;52.432;4.780;2023-03-17T05:14:09;2.38;;;1.50;;
44145;SDS011;29809;52.432;4.780;2023-03-17T05:16:34;1.35;;;1.25;;
44145;SDS011;29809;52.432;4.780;2023-03-17T05:19:00;2.40;;;1.30;;
44145;SDS011;29809;52.432;4.780;2023-03-17T05:21:25;1.42;;;1.30;;
44145;SDS011;29809;52.432;4.780;2023-03-17T05:23:51;2.15;;;1.52;;
44145;SDS011;29809;52.432;4.780;2023-03-17T05:26:16;1.77;;;1.45;;
44145;SDS011;29809;52.432;4.780;2023-03-17T05:28:41;1.20;;;1.10;;
44145;SDS011;29809;52.432;4.780;2023-03-17T05:31:06;2.42;;;1.35;;
44145;SDS011;29809;52.432;4.780;2023-03-17T05:33:32;2.03;;;1.67;;
44145;SDS011;29809;52.432;4.780;2023-03-17T05:35:58;4.47;;;1.70;;
44145;SDS011;29809;52.432;4.780;2023-03-17T05:38:23;2.63;;;2.05;;
44145;SDS011;29809;52.432;4.780;2023-03-17T05:40:49;2.42;;;1.88;;
44145;SDS011;29809;52.432;4.780;2023-03-17T05:43:15;2.67;;;1.40;;
44145;SDS011;29809;52.432;4.780;2023-03-17T05:45:40;5.50;;;1.92;;
44145;SDS011;29809;52.432;4.780;2023-03-17T05:48:06;4.47;;;1.27;;
44145;SDS011;29809;52.432;4.780;2023-03-17T05:50:32;2.53;;;1.75;;
44145;SDS011;29809;52.432;4.780;2023-03-17T05:52:57;2.33;;;1.25;;
44145;SDS011;29809;52.432;4.780;2023-03-17T05:55:22;2.45;;;1.42;;
44145;SDS011;29809;52.432;4.780;2023-03-17T05:57:47;2.60;;;1.20;;
44145;SDS011;29809;52.432;4.780;2023-03-17T06:00:13;1.40;;;1.30;;
44145;SDS011;29809;52.432;4.780;2023-03-17T06:02:40;2.85;;;1.10;;
44145;SDS011;29809;52.432;4.780;2023-03-17T06:05:05;2.28;;;1.38;;
44145;SDS011;29809;52.432;4.780;2023-03-17T06:07:32;3.40;;;1.88;;
44145;SDS011;29809;52.432;4.780;2023-03-17T06:09:57;86.18;;;28.00;;
44145;SDS011;29809;52.432;4.780;2023-03-17T06:12:23;86.38;;;24.10;;
44145;SDS011;29809;52.432;4.780;2023-03-17T06:14:48;82.50;;;26.25;;
44145;SDS011;29809;52.432;4.780;2023-03-17T06:17:14;61.05;;;21.88;;
44145;SDS011;29809;52.432;4.780;2023-03-17T06:19:39;61.75;;;20.48;;
44145;SDS011;29809;52.432;4.780;2023-03-17T06:22:04;56.25;;;19.85;;
44145;SDS011;29809;52.432;4.780;2023-03-17T06:24:31;56.97;;;19.05;;
44145;SDS011;29809;52.432;4.780;2023-03-17T06:26:56;54.25;;;19.10;;
44145;SDS011;29809;52.432;4.780;2023-03-17T06:29:21;49.70;;;16.27;;
44145;SDS011;29809;52.432;4.780;2023-03-17T06:31:46;42.25;;;16.83;;
44145;SDS011;29809;52.432;4.780;2023-03-17T06:34:21;44.97;;;17.23;;
44145;SDS011;29809;52.432;4.780;2023-03-17T06:36:47;36.28;;;14.27;;
44145;SDS011;29809;52.432;4.780;2023-03-17T06:39:13;37.60;;;14.38;;
44145;SDS011;29809;52.432;4.780;2023-03-17T06:41:39;36.00;;;13.45;;
44145;SDS011;29809;52.432;4.780;2023-03-17T06:44:05;36.55;;;13.63;;
44145;SDS011;29809;52.432;4.780;2023-03-17T06:46:30;28.98;;;12.43;;
44145;SDS011;29809;52.432;4.780;2023-03-17T06:48:56;29.17;;;11.80;;
44145;SDS011;29809;52.432;4.780;2023-03-17T06:51:21;26.90;;;12.60;;
44145;SDS011;29809;52.432;4.780;2023-03-17T06:53:46;23.73;;;10.90;;
44145;SDS011;29809;52.432;4.780;2023-03-17T06:56:11;27.20;;;10.57;;
44145;SDS011;29809;52.432;4.780;2023-03-17T06:58:37;19.20;;;9.38;;
44145;SDS011;29809;52.432;4.780;2023-03-17T07:01:03;21.30;;;10.45;;
44145;SDS011;29809;52.432;4.780;2023-03-17T07:03:29;20.90;;;9.60;;
44145;SDS011;29809;52.432;4.780;2023-03-17T07:05:55;18.85;;;8.85;;
44145;SDS011;29809;52.432;4.780;2023-03-17T07:08:20;18.88;;;8.45;;
44145;SDS011;29809;52.432;4.780;2023-03-17T07:10:46;16.10;;;8.40;;
44145;SDS011;29809;52.432;4.780;2023-03-17T07:13:11;22.27;;;8.50;;
44145;SDS011;29809;52.432;4.780;2023-03-17T07:15:37;18.52;;;8.30;;
44145;SDS011;29809;52.432;4.780;2023-03-17T07:18:03;17.83;;;7.80;;
44145;SDS011;29809;52.432;4.780;2023-03-17T07:20:29;14.32;;;7.60;;
44145;SDS011;29809;52.432;4.780;2023-03-17T07:22:57;14.85;;;6.95;;
44145;SDS011;29809;52.432;4.780;2023-03-17T07:25:22;16.70;;;7.75;;
44145;SDS011;29809;52.432;4.780;2023-03-17T07:27:48;12.50;;;5.85;;
44145;SDS011;29809;52.432;4.780;2023-03-17T07:30:16;13.35;;;6.28;;
44145;SDS011;29809;52.432;4.780;2023-03-17T07:32:45;14.10;;;5.53;;
44145;SDS011;29809;52.432;4.780;2023-03-17T07:35:14;13.10;;;5.85;;
44145;SDS011;29809;52.432;4.780;2023-03-17T07:37:39;11.48;;;5.57;;
44145;SDS011;29809;52.432;4.780;2023-03-17T07:40:05;9.77;;;4.72;;
44145;SDS011;29809;52.432;4.780;2023-03-17T07:42:32;9.23;;;4.65;;
44145;SDS011;29809;52.432;4.780;2023-03-17T07:44:58;8.40;;;4.40;;
44145;SDS011;29809;52.432;4.780;2023-03-17T07:47:23;9.77;;;4.85;;
44145;SDS011;29809;52.432;4.780;2023-03-17T07:49:48;11.25;;;4.22;;
44145;SDS011;29809;52.432;4.780;2023-03-17T07:52:13;11.45;;;4.97;;
44145;SDS011;29809;52.432;4.780;2023-03-17T07:54:39;9.90;;;4.65;;
44145;SDS011;29809;52.432;4.780;2023-03-17T07:57:05;5.65;;;4.00;;
44145;SDS011;29809;52.432;4.780;2023-03-17T07:59:30;7.63;;;3.55;;
44145;SDS011;29809;52.432;4.780;2023-03-17T08:01:56;6.15;;;4.00;;
44145;SDS011;29809;52.432;4.780;2023-03-17T08:04:22;6.80;;;3.75;;
44145;SDS011;29809;52.432;4.780;2023-03-17T08:06:48;5.35;;;3.45;;
44145;SDS011;29809;52.432;4.780;2023-03-17T08:09:13;6.38;;;4.00;;
44145;SDS011;29809;52.432;4.780;2023-03-17T08:11:38;5.45;;;3.42;;
44145;SDS011;29809;52.432;4.780;2023-03-17T08:14:04;5.63;;;3.72;;
44145;SDS011;29809;52.432;4.780;2023-03-17T08:16:30;4.55;;;3.28;;
44145;SDS011;29809;52.432;4.780;2023-03-17T08:18:56;6.57;;;3.25;;
44145;SDS011;29809;52.432;4.780;2023-03-17T08:21:23;6.47;;;3.75;;
44145;SDS011;29809;52.432;4.780;2023-03-17T08:23:48;4.72;;;3.28;;
44145;SDS011;29809;52.432;4.780;2023-03-17T08:26:13;4.63;;;3.72;;
44145;SDS011;29809;52.432;4.780;2023-03-17T08:28:39;5.50;;;3.50;;
44145;SDS011;29809;52.432;4.780;2023-03-17T08:31:05;4.82;;;3.50;;
44145;SDS011;29809;52.432;4.780;2023-03-17T08:33:32;4.20;;;3.42;;
44145;SDS011;29809;52.432;4.780;2023-03-17T08:35:57;5.07;;;3.38;;
44145;SDS011;29809;52.432;4.780;2023-03-17T08:38:23;5.35;;;3.50;;
44145;SDS011;29809;52.432;4.780;2023-03-17T08:40:48;5.93;;;3.88;;
44145;SDS011;29809;52.432;4.780;2023-03-17T08:43:14;4.07;;;3.10;;
44145;SDS011;29809;52.432;4.780;2023-03-17T08:45:40;4.05;;;3.05;;
44145;SDS011;29809;52.432;4.780;2023-03-17T08:48:05;4.70;;;3.15;;
44145;SDS011;29809;52.432;4.780;2023-03-17T08:50:31;10.25;;;3.08;;
44145;SDS011;29809;52.432;4.780;2023-03-17T08:52:56;6.65;;;2.95;;
44145;SDS011;29809;52.432;4.780;2023-03-17T08:55:21;5.88;;;2.95;;
44145;SDS011;29809;52.432;4.780;2023-03-17T08:57:47;4.13;;;2.80;;
44145;SDS011;29809;52.432;4.780;2023-03-17T09:00:13;5.60;;;3.15;;
44145;SDS011;29809;52.432;4.780;2023-03-17T09:02:41;3.33;;;3.03;;
44145;SDS011;29809;52.432;4.780;2023-03-17T09:05:13;5.78;;;2.95;;
44145;SDS011;29809;52.432;4.780;2023-03-17T09:07:39;4.20;;;2.85;;
44145;SDS011;29809;52.432;4.780;2023-03-17T09:10:05;4.55;;;2.55;;
44145;SDS011;29809;52.432;4.780;2023-03-17T09:12:31;4.80;;;2.97;;
44145;SDS011;29809;52.432;4.780;2023-03-17T09:14:56;6.03;;;2.90;;
44145;SDS011;29809;52.432;4.780;2023-03-17T09:17:22;3.50;;;2.65;;
44145;SDS011;29809;52.432;4.780;2023-03-17T09:19:47;3.92;;;2.78;;
44145;SDS011;29809;52.432;4.780;2023-03-17T09:22:13;4.22;;;2.83;;
44145;SDS011;29809;52.432;4.780;2023-03-17T09:24:39;3.25;;;2.50;;
44145;SDS011;29809;52.432;4.780;2023-03-17T09:27:04;4.75;;;3.00;;
44145;SDS011;29809;52.432;4.780;2023-03-17T09:29:29;4.68;;;2.67;;
44145;SDS011;29809;52.432;4.780;2023-03-17T09:31:55;4.40;;;3.30;;
44145;SDS011;29809;52.432;4.780;2023-03-17T09:34:21;4.65;;;3.22;;
44145;SDS011;29809;52.432;4.780;2023-03-17T09:36:46;3.72;;;2.50;;
44145;SDS011;29809;52.432;4.780;2023-03-17T09:39:11;3.85;;;2.78;;
44145;SDS011;29809;52.432;4.780;2023-03-17T09:46:53;3.08;;;2.38;;
44145;SDS011;29809;52.432;4.780;2023-03-17T09:49:56;3.30;;;2.55;;
44145;SDS011;29809;52.432;4.780;2023-03-17T09:52:26;3.20;;;2.60;;
44145;SDS011;29809;52.432;4.780;2023-03-17T09:54:52;6.13;;;3.08;;
44145;SDS011;29809;52.432;4.780;2023-03-17T09:57:31;4.03;;;2.88;;
44145;SDS011;29809;52.432;4.780;2023-03-17T10:00:15;3.33;;;2.53;;
44145;SDS011;29809;52.432;4.780;2023-03-17T10:02:42;4.13;;;2.55;;
44145;SDS011;29809;52.432;4.780;2023-03-17T10:05:18;3.42;;;3.05;;
44145;SDS011;29809;52.432;4.780;2023-03-17T10:12:58;3.30;;;2.63;;
44145;SDS011;29809;52.432;4.780;2023-03-17T10:15:32;3.08;;;2.65;;
44145;SDS011;29809;52.432;4.780;2023-03-17T10:18:09;3.72;;;2.88;;
44145;SDS011;29809;52.432;4.780;2023-03-17T10:20:37;3.83;;;2.50;;
44145;SDS011;29809;52.432;4.780;2023-03-17T10:23:07;3.72;;;2.95;;
44145;SDS011;29809;52.432;4.780;2023-03-17T10:25:36;4.97;;;3.05;;
44145;SDS011;29809;52.432;4.780;2023-03-17T10:30:29;4.32;;;3.25;;
44145;SDS011;29809;52.432;4.780;2023-03-17T10:32:55;4.53;;;3.30;;
44145;SDS011;29809;52.432;4.780;2023-03-17T10:35:22;3.55;;;3.03;;
44145;SDS011;29809;52.432;4.780;2023-03-17T10:37:48;4.22;;;3.20;;
44145;SDS011;29809;52.432;4.780;2023-03-17T10:40:27;4.97;;;2.83;;
44145;SDS011;29809;52.432;4.780;2023-03-17T10:42:59;4.03;;;2.63;;
44145;SDS011;29809;52.432;4.780;2023-03-17T10:45:26;4.28;;;2.95;;
44145;SDS011;29809;52.432;4.780;2023-03-17T10:47:53;5.60;;;3.10;;
44145;SDS011;29809;52.432;4.780;2023-03-17T10:52:46;3.47;;;3.00;;
44145;SDS011;29809;52.432;4.780;2023-03-17T10:55:16;4.43;;;3.55;;
44145;SDS011;29809;52.432;4.780;2023-03-17T10:57:53;3.97;;;2.90;;
44145;SDS011;29809;52.432;4.780;2023-03-17T11:00:22;3.75;;;3.22;;
44145;SDS011;29809;52.432;4.780;2023-03-17T11:02:54;4.85;;;3.17;;
44145;SDS011;29809;52.432;4.780;2023-03-17T11:05:30;6.63;;;3.00;;
44145;SDS011;29809;52.432;4.780;2023-03-17T11:07:56;5.75;;;2.70;;
44145;SDS011;29809;52.432;4.780;2023-03-17T11:10:22;8.88;;;3.15;;
44145;SDS011;29809;52.432;4.780;2023-03-17T11:12:53;3.95;;;3.10;;
44145;SDS011;29809;52.432;4.780;2023-03-17T11:15:18;3.83;;;3.08;;
44145;SDS011;29809;52.432;4.780;2023-03-17T11:20:23;4.40;;;3.13;;
44145;SDS011;29809;52.432;4.780;2023-03-17T11:25:24;4.50;;;3.15;;
44145;SDS011;29809;52.432;4.780;2023-03-17T11:30:35;5.85;;;3.55;;
44145;SDS011;29809;52.432;4.780;2023-03-17T11:33:03;3.67;;;2.90;;
44145;SDS011;29809;52.432;4.780;2023-03-17T11:35:36;5.93;;;3.22;;
44145;SDS011;29809;52.432;4.780;2023-03-17T11:43:46;6.18;;;3.22;;
44145;SDS011;29809;52.432;4.780;2023-03-17T11:51:29;3.50;;;2.90;;
44145;SDS011;29809;52.432;4.780;2023-03-17T11:54:02;3.83;;;3.17;;
44145;SDS011;29809;52.432;4.780;2023-03-17T11:56:34;7.22;;;2.80;;
44145;SDS011;29809;52.432;4.780;2023-03-17T11:59:02;5.35;;;2.72;;
44145;SDS011;29809;52.432;4.780;2023-03-17T12:01:32;5.32;;;2.97;;
44145;SDS011;29809;52.432;4.780;2023-03-17T12:04:19;4.20;;;3.08;;
44145;SDS011;29809;52.432;4.780;2023-03-17T12:06:50;4.00;;;2.97;;
44145;SDS011;29809;52.432;4.780;2023-03-17T12:09:34;4.60;;;2.88;;
44145;SDS011;29809;52.432;4.780;2023-03-17T12:12:04;6.88;;;2.65;;
44145;SDS011;29809;52.432;4.780;2023-03-17T12:14:32;4.55;;;2.58;;
44145;SDS011;29809;52.432;4.780;2023-03-17T12:17:07;6.03;;;3.15;;
44145;SDS011;29809;52.432;4.780;2023-03-17T12:19:54;5.30;;;2.72;;
44145;SDS011;29809;52.432;4.780;2023-03-17T12:22:30;3.75;;;2.80;;
44145;SDS011;29809;52.432;4.780;2023-03-17T12:28:05;3.95;;;2.40;;
44145;SDS011;29809;52.432;4.780;2023-03-17T12:30:34;4.32;;;2.58;;
44145;SDS011;29809;52.432;4.780;2023-03-17T12:35:34;4.07;;;2.53;;
44145;SDS011;29809;52.432;4.780;2023-03-17T12:43:35;4.00;;;2.15;;
44145;SDS011;29809;52.432;4.780;2023-03-17T12:51:33;3.00;;;2.28;;
44145;SDS011;29809;52.432;4.780;2023-03-17T12:54:03;3.00;;;2.40;;
44145;SDS011;29809;52.432;4.780;2023-03-17T12:56:35;3.10;;;2.28;;
44145;SDS011;29809;52.432;4.780;2023-03-17T12:59:04;4.15;;;2.30;;
44145;SDS011;29809;52.432;4.780;2023-03-17T13:01:38;3.20;;;2.50;;
44145;SDS011;29809;52.432;4.780;2023-03-17T13:04:23;3.05;;;2.30;;
44145;SDS011;29809;52.432;4.780;2023-03-17T13:06:57;3.42;;;2.88;;
44145;SDS011;29809;52.432;4.780;2023-03-17T13:11:55;2.80;;;2.50;;
44145;SDS011;29809;52.432;4.780;2023-03-17T13:14:41;4.03;;;2.75;;
44145;SDS011;29809;52.432;4.780;2023-03-17T13:19:54;4.65;;;3.10;;
44145;SDS011;29809;52.432;4.780;2023-03-17T13:24:54;3.10;;;2.60;;
44145;SDS011;29809;52.432;4.780;2023-03-17T13:29:56;4.50;;;2.28;;
44145;SDS011;29809;52.432;4.780;2023-03-17T13:37:34;5.10;;;2.65;;
44145;SDS011;29809;52.432;4.780;2023-03-17T13:45:35;4.28;;;2.63;;
44145;SDS011;29809;52.432;4.780;2023-03-17T13:50:45;3.17;;;2.60;;
44145;SDS011;29809;52.432;4.780;2023-03-17T13:53:10;4.65;;;2.60;;
44145;SDS011;29809;52.432;4.780;2023-03-17T13:55:38;3.28;;;2.60;;
44145;SDS011;29809;52.432;4.780;2023-03-17T14:00:30;2.95;;;2.60;;
44145;SDS011;29809;52.432;4.780;2023-03-17T14:05:35;5.43;;;2.60;;
44145;SDS011;29809;52.432;4.780;2023-03-17T14:08:07;3.75;;;2.80;;
44145;SDS011;29809;52.432;4.780;2023-03-17T14:10:38;4.32;;;2.83;;
44145;SDS011;29809;52.432;4.780;2023-03-17T14:18:16;4.47;;;2.95;;
44145;SDS011;29809;52.432;4.780;2023-03-17T14:20:54;5.45;;;2.70;;
44145;SDS011;29809;52.432;4.780;2023-03-17T14:23:21;3.67;;;2.35;;
44145;SDS011;29809;52.432;4.780;2023-03-17T14:25:47;5.85;;;3.42;;
44145;SDS011;29809;52.432;4.780;2023-03-17T14:28:15;3.03;;;2.45;;
44145;SDS011;29809;52.432;4.780;2023-03-17T14:30:47;3.10;;;2.70;;
44145;SDS011;29809;52.432;4.780;2023-03-17T14:33:16;2.22;;;2.03;;
44145;SDS011;29809;52.432;4.780;2023-03-17T14:35:48;2.65;;;1.98;;
44145;SDS011;29809;52.432;4.780;2023-03-17T14:40:48;2.25;;;2.05;;
44145;SDS011;29809;52.432;4.780;2023-03-17T14:43:14;2.50;;;1.85;;
44145;SDS011;29809;52.432;4.780;2023-03-17T14:48:15;4.00;;;2.15;;
44145;SDS011;29809;52.432;4.780;2023-03-17T14:50:48;4.32;;;2.10;;
44145;SDS011;29809;52.432;4.780;2023-03-17T14:53:15;2.50;;;1.95;;
44145;SDS011;29809;52.432;4.780;2023-03-17T14:55:40;2.63;;;1.90;;
44145;SDS011;29809;52.432;4.780;2023-03-17T14:58:28;2.78;;;2.20;;
44145;SDS011;29809;52.432;4.780;2023-03-17T15:01:00;3.30;;;2.40;;
44145;SDS011;29809;52.432;4.780;2023-03-17T15:03:27;3.35;;;2.28;;
44145;SDS011;29809;52.432;4.780;2023-03-17T15:06:02;2.95;;;1.85;;
44145;SDS011;29809;52.432;4.780;2023-03-17T15:10:53;4.00;;;2.25;;
44145;SDS011;29809;52.432;4.780;2023-03-17T15:13:21;2.55;;;2.15;;
44145;SDS011;29809;52.432;4.780;2023-03-17T15:15:48;1.83;;;1.70;;
44145;SDS011;29809;52.432;4.780;2023-03-17T15:18:14;2.45;;;2.00;;
44145;SDS011;29809;52.432;4.780;2023-03-17T15:20:41;1.63;;;1.45;;
44145;SDS011;29809;52.432;4.780;2023-03-17T15:25:43;2.00;;;1.80;;
44145;SDS011;29809;52.432;4.780;2023-03-17T15:28:13;1.90;;;1.80;;
44145;SDS011;29809;52.432;4.780;2023-03-17T15:30:41;2.95;;;1.90;;
44145;SDS011;29809;52.432;4.780;2023-03-17T15:35:45;3.40;;;1.90;;
44145;SDS011;29809;52.432;4.780;2023-03-17T15:38:10;2.35;;;2.15;;
44145;SDS011;29809;52.432;4.780;2023-03-17T15:40:36;2.35;;;2.10;;
44145;SDS011;29809;52.432;4.780;2023-03-17T15:43:01;3.25;;;2.38;;
44145;SDS011;29809;52.432;4.780;2023-03-17T15:45:27;1.90;;;1.65;;
44145;SDS011;29809;52.432;4.780;2023-03-17T15:47:52;1.90;;;1.80;;
44145;SDS011;29809;52.432;4.780;2023-03-17T15:50:25;2.00;;;1.60;;
44145;SDS011;29809;52.432;4.780;2023-03-17T15:52:53;3.05;;;2.15;;
44145;SDS011;29809;52.432;4.780;2023-03-17T15:55:21;2.38;;;1.70;;
44145;SDS011;29809;52.432;4.780;2023-03-17T15:57:47;2.35;;;2.15;;
44145;SDS011;29809;52.432;4.780;2023-03-17T16:00:16;1.98;;;1.52;;
44145;SDS011;29809;52.432;4.780;2023-03-17T16:02:42;3.80;;;1.75;;
44145;SDS011;29809;52.432;4.780;2023-03-17T16:05:20;2.78;;;1.92;;
44145;SDS011;29809;52.432;4.780;2023-03-17T16:07:47;2.70;;;1.90;;
44145;SDS011;29809;52.432;4.780;2023-03-17T16:10:22;2.60;;;1.88;;
44145;SDS011;29809;52.432;4.780;2023-03-17T16:12:48;2.00;;;1.75;;
44145;SDS011;29809;52.432;4.780;2023-03-17T16:15:14;1.70;;;1.60;;
44145;SDS011;29809;52.432;4.780;2023-03-17T16:17:39;2.67;;;1.70;;
44145;SDS011;29809;52.432;4.780;2023-03-17T16:20:05;2.55;;;1.92;;
44145;SDS011;29809;52.432;4.780;2023-03-17T16:24:59;1.60;;;1.50;;
44145;SDS011;29809;52.432;4.780;2023-03-17T16:27:24;3.47;;;1.67;;
44145;SDS011;29809;52.432;4.780;2023-03-17T16:29:49;2.10;;;1.90;;
44145;SDS011;29809;52.432;4.780;2023-03-17T16:32:15;2.20;;;1.63;;